Time;durP1;ratioP1;P1;durP2;ratioP2;P2;SDS_P1;SDS_P2;PMS_P1;PMS_P2;Temp;Humidity;BMP_temperature;BMP_pressure;BME280_temperature;BME280_humidity;BME280_pressure;Samples;Min_cycle;Max_cycle;Signal;HPM_P1;HPM_P2
2023/05/15 00:02:13;;;;;;;9.98;6.13;;;15.20;93.60;;;;;;5011199;28;20037;-68
2023/05/15 00:04:39;;;;;;;8.23;5.80;;;15.10;93.50;;;;;;5010333;28;20117;-67
2023/05/15 00:07:05;;;;;;;7.97;5.78;;;15.10;93.80;;;;;;5010142;28;20029;-68
2023/05/15 00:09:31;;;;;;;16.33;6.85;;;15.10;93.80;;;;;;5010344;28;20083;-68
2023/05/15 00:11:57;;;;;;;12.13;6.47;;;15.00;93.90;;;;;;5010118;28;20455;-67
2023/05/15 00:14:23;;;;;;;8.40;5.97;;;14.90;94.10;;;;;;5009349;28;20034;-67
2023/05/15 00:16:49;;;;;;;9.32;6.45;;;15.00;94.00;;;;;;5010181;28;20034;-67
2023/05/15 00:19:15;;;;;;;11.95;6.85;;;14.90;94.00;;;;;;5010005;28;20051;-68
2023/05/15 00:21:41;;;;;;;9.98;6.70;;;15.00;93.90;;;;;;5009953;28;20030;-68
2023/05/15 00:24:07;;;;;;;8.35;6.13;;;15.00;94.40;;;;;;5009709;28;20367;-68
2023/05/15 00:26:33;;;;;;;9.73;6.43;;;14.90;94.50;;;;;;5010283;28;20521;-67
2023/05/15 00:28:58;;;;;;;9.90;6.47;;;14.90;94.70;;;;;;5009881;28;20119;-67
2023/05/15 00:31:24;;;;;;;8.52;6.18;;;14.80;95.20;;;;;;5024347;28;20056;-67
2023/05/15 00:33:50;;;;;;;9.60;6.78;;;14.80;94.80;;;;;;5011995;28;20038;-67
2023/05/15 00:36:16;;;;;;;9.27;6.35;;;14.80;94.80;;;;;;5029625;28;20368;-68
2023/05/15 00:38:42;;;;;;;10.00;6.78;;;14.80;94.80;;;;;;5029707;28;20412;-68
2023/05/15 00:41:10;;;;;;;10.60;6.53;;;14.80;94.70;;;;;;5030843;28;20433;-69
2023/05/15 00:43:37;;;;;;;11.90;7.30;;;14.90;94.70;;;;;;5033211;28;20041;-67
2023/05/15 00:46:05;;;;;;;11.55;6.72;;;14.90;94.70;;;;;;5033420;28;20117;-68
2023/05/15 00:48:32;;;;;;;14.63;6.85;;;15.00;94.30;;;;;;5033139;28;20029;-68
2023/05/15 00:50:59;;;;;;;10.07;6.70;;;15.00;94.50;;;;;;5033130;28;20045;-69
2023/05/15 00:53:26;;;;;;;10.35;7.00;;;15.00;95.00;;;;;;5033471;28;20430;-68
2023/05/15 00:55:56;;;;;;;10.23;7.10;;;14.90;95.20;;;;;;5015374;28;20034;-68
2023/05/15 00:58:22;;;;;;;13.75;7.13;;;14.80;95.40;;;;;;5033006;28;20040;-69
2023/05/15 01:00:49;;;;;;;13.15;6.72;;;14.80;95.60;;;;;;5032873;28;20034;-69
2023/05/15 01:03:16;;;;;;;10.82;6.85;;;14.70;95.70;;;;;;5032767;28;20434;-68
2023/05/15 01:05:42;;;;;;;14.65;7.20;;;14.60;95.80;;;;;;5033255;28;20094;-67
2023/05/15 01:08:25;;;;;;;17.88;7.05;;;14.60;95.90;;;;;;5032879;28;20045;-70
2023/05/15 01:10:51;;;;;;;10.60;7.13;;;14.50;96.10;;;;;;5032683;28;20522;-70
2023/05/15 01:13:22;;;;;;;11.82;6.97;;;14.50;96.20;;;;;;5032549;28;20095;-69
2023/05/15 01:15:48;;;;;;;8.73;6.97;;;14.60;96.30;;;;;;5032671;28;20033;-68
2023/05/15 01:18:14;;;;;;;15.55;7.18;;;14.60;96.30;;;;;;5015031;28;20109;-68
2023/05/15 01:21:08;;;;;;;10.05;7.28;;;14.50;96.40;;;;;;5032992;28;20518;-68
2023/05/15 01:23:55;;;;;;;12.30;7.22;;;14.60;96.30;;;;;;5010303;28;20125;-69
2023/05/15 01:26:49;;;;;;;13.85;7.40;;;14.80;95.60;;;;;;5032475;28;20091;-68
2023/05/15 01:29:21;;;;;;;11.55;7.38;;;14.90;95.60;;;;;;5031641;28;20045;-68
2023/05/15 01:31:53;;;;;;;11.18;7.53;;;14.90;95.80;;;;;;5032257;28;20048;-69
2023/05/15 01:34:25;;;;;;;9.70;6.72;;;14.90;95.70;;;;;;5014919;28;20460;-67
2023/05/15 01:36:56;;;;;;;9.75;7.13;;;14.80;96.10;;;;;;5032114;28;20033;-68
2023/05/15 01:39:25;;;;;;;11.25;7.78;;;14.70;96.40;;;;;;5032152;28;20030;-68
2023/05/15 01:42:04;;;;;;;11.40;7.18;;;14.70;96.70;;;;;;5032426;28;20026;-68
2023/05/15 01:44:33;;;;;;;9.55;7.13;;;14.60;96.90;;;;;;5032455;28;20471;-68
2023/05/15 01:47:00;;;;;;;;;;;14.60;96.90;;;;;;5032691;28;20034;-69
2023/05/15 01:49:28;;;;;;;10.60;6.85;;;14.50;97.00;;;;;;5032071;28;19920;-69
2023/05/15 01:52:07;;;;;;;14.07;6.93;;;14.40;97.20;;;;;;5031417;28;20468;-68
2023/05/15 01:54:34;;;;;;;9.50;7.47;;;14.50;97.20;;;;;;5031817;28;20041;-68
2023/05/15 01:57:00;;;;;;;11.53;8.17;;;14.40;97.30;;;;;;5031713;28;20114;-67
2023/05/15 01:59:28;;;;;;;11.80;7.93;;;14.40;97.30;;;;;;5032573;28;20290;-69
2023/05/15 02:01:55;;;;;;;11.00;7.47;;;14.30;97.40;;;;;;5031665;28;20426;-69
2023/05/15 02:04:21;;;;;;;12.35;7.80;;;14.30;97.50;;;;;;5031780;28;20290;-69
2023/05/15 02:06:49;;;;;;;14.18;8.23;;;14.40;97.40;;;;;;5031738;28;20022;-69
2023/05/15 02:09:15;;;;;;;12.38;8.52;;;14.40;97.30;;;;;;5014112;28;20430;-69
2023/05/15 02:11:42;;;;;;;13.50;7.65;;;14.30;97.40;;;;;;5032369;28;20022;-69
2023/05/15 02:14:10;;;;;;;16.42;8.68;;;14.40;97.30;;;;;;5031624;28;20484;-68
2023/05/15 02:16:35;;;;;;;16.55;8.00;;;14.40;97.30;;;;;;5030994;28;20053;-68
2023/05/15 02:19:01;;;;;;;11.43;8.18;;;14.40;97.40;;;;;;5013872;28;20392;-68
2023/05/15 02:21:28;;;;;;;13.45;7.82;;;14.40;97.40;;;;;;5031459;28;20526;-68
2023/05/15 02:23:53;;;;;;;14.20;8.68;;;14.50;97.40;;;;;;5031203;28;20055;-68
2023/05/15 02:26:53;;;;;;;14.20;7.97;;;14.40;97.40;;;;;;5031991;28;20431;-69
2023/05/15 02:29:33;;;;;;;9.02;7.53;;;14.40;97.30;;;;;;5031505;28;20037;-67
2023/05/15 02:32:11;;;;;;;12.27;7.47;;;14.50;97.20;;;;;;5031274;28;20041;-69
2023/05/15 02:35:06;;;;;;;10.25;7.43;;;14.40;97.00;;;;;;5031205;28;20053;-69
2023/05/15 02:37:34;;;;;;;12.40;8.57;;;14.50;97.00;;;;;;5031285;28;20040;-68
2023/05/15 02:40:05;;;;;;;11.80;8.40;;;14.50;97.30;;;;;;5031149;28;20041;-68
2023/05/15 02:42:33;;;;;;;14.60;7.60;;;14.50;97.30;;;;;;5030986;28;20037;-68
2023/05/15 02:45:00;;;;;;;;;;;14.40;97.10;;;;;;5031643;28;20029;-70
2023/05/15 02:47:27;;;;;;;9.40;6.88;;;14.40;96.90;;;;;;5014207;28;19901;-68
2023/05/15 02:49:53;;;;;;;10.05;7.22;;;14.50;96.50;;;;;;5014034;28;20049;-68
2023/05/15 02:52:22;;;;;;;15.80;7.63;;;14.50;96.70;;;;;;5031671;28;20022;-68
2023/05/15 02:54:48;;;;;;;11.10;7.80;;;14.60;97.10;;;;;;5031693;28;20053;-68
2023/05/15 02:57:13;;;;;;;15.77;7.88;;;14.60;96.90;;;;;;5031730;28;20064;-67
2023/05/15 02:59:40;;;;;;;11.65;7.82;;;14.60;97.20;;;;;;5031351;28;20036;-68
2023/05/15 03:02:05;;;;;;;13.25;7.80;;;14.50;97.20;;;;;;5030796;28;20022;-68
2023/05/15 03:04:31;;;;;;;8.02;6.55;;;14.50;96.80;;;;;;5029742;28;20044;-69
2023/05/15 03:06:57;;;;;;;11.43;7.53;;;14.50;96.60;;;;;;5030779;28;20037;-69
2023/05/15 03:09:24;;;;;;;9.85;7.40;;;14.50;96.50;;;;;;5030679;28;20049;-69
2023/05/15 03:11:49;;;;;;;16.27;7.25;;;14.60;96.20;;;;;;5030546;28;20120;-68
2023/05/15 03:14:15;;;;;;;10.38;7.85;;;14.70;95.90;;;;;;5013494;28;20113;-69
2023/05/15 03:16:41;;;;;;;12.60;8.23;;;14.80;95.60;;;;;;5030620;28;20030;-69
2023/05/15 03:19:07;;;;;;;9.40;7.18;;;14.80;95.80;;;;;;5013027;28;20029;-67
2023/05/15 03:21:33;;;;;;;15.48;7.38;;;14.70;95.90;;;;;;5030612;28;20037;-68
2023/05/15 03:24:00;;;;;;;10.05;7.35;;;14.70;96.00;;;;;;5030264;28;20022;-68
2023/05/15 03:26:25;;;;;;;13.70;7.80;;;14.70;96.00;;;;;;5031110;28;20009;-68
2023/05/15 03:28:52;;;;;;;12.52;8.55;;;14.70;96.00;;;;;;5030408;28;20084;-68
2023/05/15 03:31:17;;;;;;;14.23;7.95;;;14.80;96.10;;;;;;5012881;28;20037;-68
2023/05/15 03:33:45;;;;;;;12.40;7.75;;;14.70;96.70;;;;;;5030422;28;20120;-68
2023/05/15 03:36:11;;;;;;;14.50;7.57;;;14.70;97.00;;;;;;5030307;28;20034;-69
2023/05/15 03:38:37;;;;;;;14.55;9.00;;;14.70;96.90;;;;;;5030624;28;20017;-68
2023/05/15 03:41:02;;;;;;;17.63;10.15;;;14.90;96.80;;;;;;5030335;28;20305;-68
2023/05/15 03:43:28;;;;;;;11.35;8.00;;;14.80;96.40;;;;;;5030400;28;20049;-69
2023/05/15 03:45:54;;;;;;;15.30;7.32;;;14.90;96.10;;;;;;5030173;28;20061;-68
2023/05/15 03:48:20;;;;;;;12.23;7.55;;;14.90;96.70;;;;;;5030184;28;20025;-69
2023/05/15 03:50:45;;;;;;;15.48;8.25;;;14.90;96.80;;;;;;5030462;28;20025;-69
2023/05/15 03:53:11;;;;;;;12.35;8.23;;;15.00;96.50;;;;;;5030710;28;20049;-68
2023/05/15 03:55:37;;;;;;;14.77;8.45;;;15.00;96.50;;;;;;5030254;28;20030;-69
2023/05/15 03:58:03;;;;;;;18.17;9.13;;;15.00;96.30;;;;;;5030061;28;20046;-68
2023/05/15 04:00:28;;;;;;;14.48;8.80;;;15.00;96.20;;;;;;5030453;28;20048;-69
2023/05/15 04:02:54;;;;;;;12.55;9.25;;;15.00;96.10;;;;;;5030137;28;20018;-69
2023/05/15 04:05:20;;;;;;;13.45;8.90;;;14.90;96.20;;;;;;5030920;28;20030;-68
2023/05/15 04:07:46;;;;;;;15.07;8.52;;;14.90;96.20;;;;;;5012649;28;20041;-69
2023/05/15 04:10:13;;;;;;;12.75;7.95;;;14.90;96.10;;;;;;5030260;28;20029;-69
2023/05/15 04:12:38;;;;;;;11.88;7.40;;;14.80;96.20;;;;;;5022505;28;20026;-69
2023/05/15 04:15:20;;;;;;;10.50;7.75;;;14.80;96.10;;;;;;5012079;28;20084;-68
2023/05/15 04:17:48;;;;;;;13.07;7.90;;;14.90;96.10;;;;;;4997183;28;20026;-69
2023/05/15 04:20:15;;;;;;;13.95;8.00;;;14.90;95.90;;;;;;5014897;28;20049;-68
2023/05/15 04:22:42;;;;;;;16.75;7.97;;;14.90;96.00;;;;;;5014250;28;20045;-69
2023/05/15 04:25:09;;;;;;;12.70;7.90;;;14.80;96.10;;;;;;4997033;28;20049;-68
2023/05/15 04:27:36;;;;;;;16.05;8.30;;;14.90;96.10;;;;;;4996635;28;20056;-69
2023/05/15 04:30:02;;;;;;;12.45;7.65;;;14.80;96.20;;;;;;5014079;28;20034;-69
2023/05/15 04:32:29;;;;;;;12.65;8.43;;;14.80;96.10;;;;;;5014401;28;20472;-68
2023/05/15 04:34:55;;;;;;;14.75;8.45;;;14.80;96.20;;;;;;5013885;28;20113;-68
2023/05/15 04:37:21;;;;;;;12.68;8.32;;;14.70;96.20;;;;;;5014254;28;20165;-67
2023/05/15 04:39:47;;;;;;;12.38;8.90;;;14.80;96.30;;;;;;5013813;28;20452;-68
2023/05/15 04:42:12;;;;;;;14.27;9.52;;;14.90;96.00;;;;;;5013815;28;20033;-67
2023/05/15 04:44:38;;;;;;;16.08;9.10;;;14.90;96.00;;;;;;5014242;28;20038;-69
2023/05/15 04:47:04;;;;;;;16.42;9.02;;;14.90;96.00;;;;;;4996402;28;20037;-69
2023/05/15 04:49:29;;;;;;;14.05;7.68;;;15.00;96.00;;;;;;5013679;28;20496;-69
2023/05/15 04:51:55;;;;;;;11.30;8.60;;;15.00;96.00;;;;;;4996487;28;20034;-69
2023/05/15 04:54:21;;;;;;;13.68;8.80;;;15.20;95.80;;;;;;5013519;28;20041;-69
2023/05/15 04:56:46;;;;;;;13.65;9.35;;;15.20;95.60;;;;;;5013331;28;20087;-69
2023/05/15 04:59:12;;;;;;;16.40;8.07;;;15.30;95.80;;;;;;5014191;28;20026;-68
2023/05/15 05:01:38;;;;;;;18.95;8.95;;;15.30;95.70;;;;;;5013581;28;20053;-70
2023/05/15 05:04:04;;;;;;;17.88;8.82;;;15.30;95.70;;;;;;5013462;28;20034;-69
2023/05/15 05:06:30;;;;;;;15.50;9.35;;;15.20;95.90;;;;;;5019794;28;20034;-69
2023/05/15 05:08:55;;;;;;;12.15;8.68;;;15.20;96.00;;;;;;5031470;28;20341;-69
2023/05/15 05:11:21;;;;;;;19.65;10.48;;;15.20;96.10;;;;;;5014909;28;20420;-68
2023/05/15 05:13:47;;;;;;;17.27;9.55;;;15.20;96.10;;;;;;5030255;28;20121;-70
2023/05/15 05:16:13;;;;;;;13.38;8.93;;;15.20;96.60;;;;;;5002987;28;20042;-69
2023/05/15 05:18:39;;;;;;;18.90;10.10;;;15.30;96.60;;;;;;5020226;28;20033;-69
2023/05/15 05:21:04;;;;;;;15.70;9.20;;;15.30;96.40;;;;;;5029638;28;20470;-68
2023/05/15 05:23:30;;;;;;;19.77;9.02;;;15.40;96.10;;;;;;5013204;28;20041;-69
2023/05/15 05:25:56;;;;;;;17.77;9.55;;;15.40;96.10;;;;;;5030419;28;20026;-68
2023/05/15 05:28:22;;;;;;;17.60;10.13;;;15.60;96.00;;;;;;5018655;28;20095;-69
2023/05/15 05:30:48;;;;;;;12.80;9.93;;;15.70;95.80;;;;;;5021418;28;20119;-69
2023/05/15 05:33:14;;;;;;;12.98;8.48;;;15.80;95.60;;;;;;5010969;28;20033;-68
2023/05/15 05:35:39;;;;;;;12.50;8.93;;;15.90;95.60;;;;;;5013113;28;20053;-69
2023/05/15 05:38:05;;;;;;;17.30;9.80;;;16.00;95.60;;;;;;5014545;28;20159;-69
2023/05/15 05:40:31;;;;;;;17.33;10.40;;;15.90;95.50;;;;;;5017688;28;20056;-69
2023/05/15 05:43:00;;;;;;;14.45;9.73;;;16.00;95.80;;;;;;5022533;28;20049;-68
2023/05/15 05:45:27;;;;;;;19.85;10.20;;;16.00;95.80;;;;;;5026399;28;20368;-68
2023/05/15 05:47:54;;;;;;;18.38;10.30;;;16.00;95.70;;;;;;5013933;28;20382;-67
2023/05/15 05:50:20;;;;;;;19.87;10.70;;;16.10;95.60;;;;;;5033560;28;20395;-68
2023/05/15 05:52:46;;;;;;;18.58;10.10;;;16.10;95.50;;;;;;4998061;28;20053;-68
2023/05/15 05:55:11;;;;;;;20.10;10.35;;;16.20;95.50;;;;;;5024727;28;20131;-67
2023/05/15 05:57:37;;;;;;;17.50;9.43;;;16.20;95.30;;;;;;5024686;28;20116;-70
2023/05/15 06:00:08;;;;;;;18.90;8.90;;;16.30;95.10;;;;;;5014849;28;20038;-69
2023/05/15 06:02:35;;;;;;;12.20;8.60;;;16.30;94.70;;;;;;5032523;28;20349;-67
2023/05/15 06:05:00;;;;;;;17.08;9.57;;;16.30;94.70;;;;;;5013946;28;20135;-66
2023/05/15 06:07:27;;;;;;;15.90;9.23;;;16.40;94.70;;;;;;5026500;28;20053;-68
2023/05/15 06:09:52;;;;;;;21.85;8.70;;;16.40;94.70;;;;;;5022757;28;20097;-67
2023/05/15 06:12:18;;;;;;;14.95;9.48;;;16.40;94.80;;;;;;5017162;28;20125;-68
2023/05/15 06:14:45;;;;;;;16.73;8.95;;;16.30;94.90;;;;;;5031574;28;20033;-67
2023/05/15 06:17:11;;;;;;;21.70;10.60;;;16.30;94.90;;;;;;5014197;28;20022;-67
2023/05/15 06:19:36;;;;;;;20.23;9.93;;;16.30;95.00;;;;;;5031809;28;20426;-67
2023/05/15 06:22:02;;;;;;;13.85;10.25;;;16.30;94.90;;;;;;5026534;28;20041;-67
2023/05/15 06:24:28;;;;;;;16.75;9.20;;;16.30;94.90;;;;;;5010206;28;20041;-68
2023/05/15 06:26:54;;;;;;;14.13;9.40;;;16.40;94.80;;;;;;5040212;28;20041;-67
2023/05/15 06:29:20;;;;;;;17.02;9.85;;;16.40;94.80;;;;;;5023266;28;20018;-68
2023/05/15 06:31:46;;;;;;;16.92;9.55;;;16.50;94.50;;;;;;5041371;28;20037;-69
2023/05/15 06:34:11;;;;;;;12.73;8.90;;;16.50;94.30;;;;;;5017622;28;20041;-69
2023/05/15 06:36:37;;;;;;;15.98;9.63;;;16.60;94.30;;;;;;5035246;28;20045;-70
2023/05/15 06:39:03;;;;;;;15.50;9.05;;;16.60;94.10;;;;;;5028534;28;22397;-69
2023/05/15 06:41:28;;;;;;;13.95;8.27;;;16.60;94.10;;;;;;5029166;28;20066;-70
2023/05/15 06:43:54;;;;;;;15.95;8.68;;;16.60;94.10;;;;;;5041498;28;20042;-69
2023/05/15 06:46:20;;;;;;;14.55;8.65;;;16.70;94.10;;;;;;5025937;28;20320;-68
2023/05/15 06:48:48;;;;;;;12.30;8.80;;;16.60;93.90;;;;;;5020613;28;20045;-67
2023/05/15 06:51:14;;;;;;;11.43;7.65;;;16.70;93.80;;;;;;5007105;28;20072;-70
2023/05/15 06:53:41;;;;;;;14.15;8.70;;;16.80;93.60;;;;;;5028262;28;20029;-71
2023/05/15 06:56:06;;;;;;;12.13;6.95;;;16.90;93.40;;;;;;5009502;28;20037;-69
2023/05/15 06:58:32;;;;;;;12.98;6.97;;;16.90;93.10;;;;;;5009337;28;20044;-70
2023/05/15 07:00:58;;;;;;;11.32;7.93;;;16.80;92.90;;;;;;5025541;28;20045;-70
2023/05/15 07:03:24;;;;;;;9.95;7.25;;;16.60;93.10;;;;;;5025172;28;20096;-71
2023/05/15 07:05:50;;;;;;;13.85;8.10;;;16.70;93.20;;;;;;5024078;28;20022;-72
2023/05/15 07:08:16;;;;;;;16.38;7.80;;;16.90;93.10;;;;;;5016577;28;20414;-70
2023/05/15 07:10:42;;;;;;;13.90;8.18;;;16.90;92.90;;;;;;5013588;28;20076;-71
2023/05/15 07:13:07;;;;;;;13.40;8.13;;;17.10;93.00;;;;;;5012286;28;20060;-70
2023/05/15 07:15:33;;;;;;;16.27;8.10;;;17.10;92.90;;;;;;5011014;28;20123;-71
2023/05/15 07:17:58;;;;;;;14.15;8.70;;;17.10;92.90;;;;;;5010788;28;20167;-72
2023/05/15 07:20:24;;;;;;;16.00;8.45;;;17.10;92.70;;;;;;5012235;28;20370;-69
2023/05/15 07:22:50;;;;;;;12.32;8.20;;;17.30;92.80;;;;;;5011435;28;20037;-72
2023/05/15 07:25:16;;;;;;;11.15;8.23;;;17.40;92.80;;;;;;5010908;28;20034;-71
2023/05/15 07:27:42;;;;;;;18.15;8.75;;;17.30;92.80;;;;;;5010669;28;20034;-72
2023/05/15 07:30:08;;;;;;;14.68;8.38;;;17.50;92.80;;;;;;5010866;28;20044;-71
2023/05/15 07:32:33;;;;;;;14.13;9.18;;;17.50;92.80;;;;;;5011144;28;20037;-73
2023/05/15 07:34:59;;;;;;;14.23;9.23;;;17.50;92.80;;;;;;4993404;28;20026;-70
2023/05/15 07:37:25;;;;;;;12.55;8.40;;;17.30;92.80;;;;;;5010537;28;20113;-73
2023/05/15 07:39:50;;;;;;;15.32;8.38;;;17.40;92.80;;;;;;5010452;28;20129;-71
2023/05/15 07:42:16;;;;;;;14.40;8.32;;;17.40;92.80;;;;;;5010296;28;20026;-71
2023/05/15 07:44:43;;;;;;;14.02;8.15;;;17.70;92.60;;;;;;5010706;28;20263;-72
2023/05/15 07:47:09;;;;;;;15.27;8.15;;;17.90;92.30;;;;;;5030515;28;20041;-73
2023/05/15 07:49:34;;;;;;;15.63;9.05;;;18.00;92.20;;;;;;5031635;28;20092;-72
2023/05/15 07:52:01;;;;;;;12.43;8.07;;;18.00;92.20;;;;;;5036474;28;20033;-73
2023/05/15 07:54:26;;;;;;;15.43;8.40;;;18.20;92.20;;;;;;5036598;28;20037;-73
2023/05/15 07:56:53;;;;;;;18.00;10.00;;;18.20;92.20;;;;;;5018851;28;20420;-72
2023/05/15 07:59:19;;;;;;;15.63;8.82;;;18.20;92.10;;;;;;5036807;28;20035;-73
2023/05/15 08:01:44;;;;;;;12.57;8.75;;;18.30;92.50;;;;;;5019098;28;20112;-72
2023/05/15 08:04:11;;;;;;;13.70;9.38;;;18.50;92.10;;;;;;5036454;28;20057;-73
2023/05/15 08:06:39;;;;;;;12.75;8.45;;;18.80;91.60;;;;;;5019049;28;20029;-73
2023/05/15 08:09:05;;;;;;;17.75;8.25;;;18.70;91.20;;;;;;5036542;28;20061;-72
2023/05/15 08:11:30;;;;;;;13.35;7.63;;;18.90;91.60;;;;;;5037189;28;20060;-71
2023/05/15 08:13:56;;;;;;;11.85;8.05;;;18.90;91.00;;;;;;5036632;28;20034;-74
2023/05/15 08:16:22;;;;;;;19.13;7.85;;;19.10;90.80;;;;;;5036704;28;20037;-72
2023/05/15 08:18:51;;;;;;;13.32;8.18;;;19.30;90.80;;;;;;5036803;28;20037;-72
2023/05/15 08:21:17;;;;;;;11.32;7.63;;;19.40;90.40;;;;;;5036647;28;20052;-71
2023/05/15 08:23:43;;;;;;;10.82;7.32;;;19.70;90.00;;;;;;5037411;28;20395;-72
2023/05/15 08:26:08;;;;;;;15.57;6.55;;;19.80;89.20;;;;;;5019270;28;20313;-69
2023/05/15 08:28:34;;;;;;;14.57;7.45;;;20.10;89.20;;;;;;5038045;28;20359;-71
2023/05/15 08:31:00;;;;;;;13.45;7.13;;;20.20;88.10;;;;;;5021065;28;20041;-71
2023/05/15 08:33:25;;;;;;;12.48;7.15;;;20.60;88.60;;;;;;5039148;28;20041;-72
2023/05/15 08:35:52;;;;;;;10.20;6.93;;;20.90;88.00;;;;;;5039209;28;20040;-68
2023/05/15 08:38:17;;;;;;;10.15;6.53;;;21.40;86.10;;;;;;5038683;28;20018;-68
2023/05/15 08:40:47;;;;;;;12.27;6.72;;;21.60;85.90;;;;;;5038494;28;20033;-68
2023/05/15 08:43:16;;;;;;;11.50;5.25;;;22.10;85.20;;;;;;5037652;28;20029;-70
2023/05/15 08:45:42;;;;;;;9.07;5.15;;;22.80;84.00;;;;;;5037325;28;20408;-71
2023/05/15 08:48:20;;;;;;;9.98;6.18;;;23.20;81.90;;;;;;5037036;28;20041;-72
2023/05/15 08:50:46;;;;;;;8.60;5.22;;;23.10;81.00;;;;;;5036827;28;20052;-71
2023/05/15 08:53:12;;;;;;;11.55;5.57;;;23.40;79.70;;;;;;5037567;28;20127;-72
2023/05/15 08:55:39;;;;;;;9.90;6.80;;;23.80;78.80;;;;;;5037015;28;20249;-72
2023/05/15 08:58:06;;;;;;;6.07;4.38;;;24.40;76.30;;;;;;5036786;28;20427;-71
2023/05/15 09:00:32;;;;;;;11.15;4.68;;;25.20;76.00;;;;;;5036510;28;20033;-74
2023/05/15 09:03:00;;;;;;;7.30;4.35;;;26.20;73.30;;;;;;5033077;28;20423;-72
2023/05/15 09:05:28;;;;;;;10.32;4.28;;;27.00;72.10;;;;;;5033907;28;20035;-73
2023/05/15 09:07:54;;;;;;;;;;;28.10;66.40;;;;;;5034045;28;20033;-72
2023/05/15 09:10:21;;;;;;;7.13;3.75;;;28.80;63.00;;;;;;5033166;28;19974;-72
2023/05/15 09:12:51;;;;;;;8.70;4.15;;;29.40;60.20;;;;;;5032890;28;20534;-71
2023/05/15 09:15:20;;;;;;;8.90;3.92;;;29.20;58.40;;;;;;5032675;28;20335;-73
2023/05/15 09:17:46;;;;;;;5.30;3.90;;;29.50;57.10;;;;;;5032709;28;20396;-72
2023/05/15 09:20:31;;;;;;;11.13;4.18;;;30.70;57.70;;;;;;5033251;28;20017;-73
2023/05/15 09:22:58;;;;;;;12.00;3.95;;;31.00;55.80;;;;;;5016035;28;20033;-74
2023/05/15 09:25:36;;;;;;;9.10;4.47;;;31.70;53.30;;;;;;5015878;28;20055;-73
2023/05/15 09:28:02;;;;;;;;;;;30.20;52.90;;;;;;5017450;28;20040;-74
2023/05/15 09:30:29;;;;;;;7.25;4.13;;;30.00;54.50;;;;;;5011712;28;20023;-71
2023/05/15 09:32:58;;;;;;;17.67;6.22;;;30.70;53.50;;;;;;5013103;28;20022;-73
2023/05/15 09:35:35;;;;;;;11.23;4.25;;;30.10;51.60;;;;;;5013436;28;20026;-70
2023/05/15 09:38:02;;;;;;;6.75;3.65;;;29.20;53.50;;;;;;5013106;28;20033;-74
2023/05/15 09:40:30;;;;;;;6.82;4.10;;;28.80;53.50;;;;;;5012840;28;20045;-72
2023/05/15 09:42:56;;;;;;;6.93;4.35;;;29.40;52.60;;;;;;5012693;28;20040;-72
2023/05/15 09:45:25;;;;;;;8.18;4.45;;;29.00;52.90;;;;;;5011275;28;20069;-71
2023/05/15 09:47:51;;;;;;;9.77;4.45;;;28.80;52.10;;;;;;5011212;28;20100;-74
2023/05/15 09:50:31;;;;;;;19.35;4.82;;;29.30;54.00;;;;;;5011856;28;20038;-71
2023/05/15 09:52:58;;;;;;;10.02;4.00;;;29.60;52.20;;;;;;5011419;28;20045;-71
2023/05/15 09:55:24;;;;;;;9.25;4.18;;;29.20;52.40;;;;;;5013024;28;20095;-70
2023/05/15 09:58:05;;;;;;;10.98;3.83;;;29.70;53.10;;;;;;5011266;28;20038;-71
2023/05/15 10:00:32;;;;;;;10.30;3.80;;;29.50;52.50;;;;;;5012282;28;20049;-72
2023/05/15 10:03:09;;;;;;;11.93;3.67;;;28.60;52.20;;;;;;5011198;28;20037;-72
2023/05/15 10:05:37;;;;;;;10.07;4.30;;;28.20;53.40;;;;;;5012527;28;20029;-73
2023/05/15 10:08:03;;;;;;;7.13;3.75;;;28.10;53.20;;;;;;5012471;28;20034;-73
2023/05/15 10:10:30;;;;;;;4.95;3.63;;;27.60;53.60;;;;;;5011675;28;20041;-70
2023/05/15 10:13:00;;;;;;;8.30;3.92;;;27.20;53.50;;;;;;5010435;28;20452;-74
2023/05/15 10:15:27;;;;;;;6.32;3.80;;;27.10;54.80;;;;;;5012180;28;20418;-72
2023/05/15 10:17:53;;;;;;;8.35;3.83;;;27.50;54.10;;;;;;5011807;28;20060;-73
2023/05/15 10:20:21;;;;;;;5.47;3.80;;;27.30;53.30;;;;;;5012763;28;20026;-74
2023/05/15 10:22:49;;;;;;;7.72;4.03;;;26.80;53.90;;;;;;5010201;28;20027;-73
2023/05/15 10:25:36;;;;;;;8.48;3.80;;;26.50;54.90;;;;;;5011840;28;20038;-72
2023/05/15 10:28:02;;;;;;;6.70;4.00;;;26.30;54.20;;;;;;5011778;28;20353;-74
2023/05/15 10:30:31;;;;;;;9.35;3.95;;;26.20;54.00;;;;;;5018931;28;20309;-69
2023/05/15 10:32:57;;;;;;;6.07;3.63;;;26.00;54.90;;;;;;5032015;28;20025;-70
2023/05/15 10:35:24;;;;;;;9.82;3.85;;;26.10;54.30;;;;;;5031963;28;20028;-69
2023/05/15 10:37:58;;;;;;;8.57;3.35;;;25.60;55.10;;;;;;5031934;28;20451;-70
2023/05/15 10:40:24;;;;;;;11.25;4.15;;;26.10;55.00;;;;;;5034324;28;20029;-72
2023/05/15 10:42:50;;;;;;;11.43;3.47;;;26.20;55.00;;;;;;5013704;28;20033;-71
2023/05/15 10:45:15;;;;;;;9.90;4.20;;;25.90;54.40;;;;;;5030848;28;20041;-72
2023/05/15 10:47:43;;;;;;;9.75;3.25;;;26.00;53.30;;;;;;5031467;28;20130;-71
2023/05/15 10:50:11;;;;;;;7.82;3.78;;;26.00;53.30;;;;;;5031104;28;20040;-72
2023/05/15 10:52:38;;;;;;;11.48;5.97;;;25.90;53.00;;;;;;5031121;28;20478;-71
2023/05/15 10:55:22;;;;;;;6.85;3.42;;;25.90;52.40;;;;;;5013384;28;20057;-72
2023/05/15 10:57:48;;;;;;;9.23;3.92;;;25.60;51.80;;;;;;5030762;28;20087;-72
2023/05/15 11:00:39;;;;;;;8.35;3.72;;;25.30;52.30;;;;;;5030465;28;20041;-72
2023/05/15 11:03:05;;;;;;;7.90;3.47;;;25.60;52.40;;;;;;5030466;28;20033;-71
2023/05/15 11:06:09;;;;;;;8.10;4.10;;;25.80;52.40;;;;;;5031618;28;20017;-68
2023/05/15 11:08:39;;;;;;;7.00;3.65;;;25.90;52.60;;;;;;5031281;28;20406;-69
2023/05/15 11:11:05;;;;;;;14.35;3.85;;;26.00;52.40;;;;;;5012962;28;20029;-73
2023/05/15 11:14:06;;;;;;;8.93;4.00;;;25.90;52.60;;;;;;5013594;28;20175;-71
2023/05/15 11:16:54;;;;;;;15.35;4.55;;;25.60;52.50;;;;;;5030263;28;20025;-71
2023/05/15 11:19:35;;;;;;;8.40;4.13;;;24.90;54.00;;;;;;5030415;28;20125;-73
2023/05/15 11:22:07;;;;;;;10.45;4.13;;;24.90;54.70;;;;;;5013049;28;20029;-69
2023/05/15 11:24:52;;;;;;;13.27;4.25;;;24.80;55.10;;;;;;5029270;28;20045;-71
2023/05/15 11:27:23;;;;;;;8.77;4.45;;;24.70;55.40;;;;;;5030063;28;20108;-71
2023/05/15 11:30:14;;;;;;;9.60;3.60;;;24.60;55.60;;;;;;5030097;28;20353;-71
2023/05/15 11:32:45;;;;;;;9.52;3.92;;;24.90;55.30;;;;;;5030829;28;20053;-71
2023/05/15 11:35:27;;;;;;;6.38;3.90;;;24.90;54.50;;;;;;5012871;28;20446;-70
2023/05/15 11:38:02;;;;;;;10.55;4.50;;;24.70;54.40;;;;;;5030199;28;20025;-70
2023/05/15 11:40:30;;;;;;;5.65;3.38;;;24.50;54.90;;;;;;5030258;28;20128;-71
2023/05/15 11:42:59;;;;;;;6.50;4.15;;;24.40;55.40;;;;;;5029998;28;20026;-70
2023/05/15 11:45:26;;;;;;;6.65;4.05;;;24.40;55.30;;;;;;5029971;28;20040;-69
2023/05/15 11:47:52;;;;;;;6.20;4.22;;;24.50;55.50;;;;;;5029827;28;20045;-69
2023/05/15 11:50:19;;;;;;;8.55;3.80;;;24.50;55.90;;;;;;5030384;28;20040;-71
2023/05/15 11:52:45;;;;;;;6.03;3.45;;;24.40;55.80;;;;;;5029547;28;20029;-73
2023/05/15 11:55:11;;;;;;;5.63;3.92;;;24.10;55.40;;;;;;5029873;28;20033;-71
2023/05/15 11:57:37;;;;;;;10.05;3.72;;;23.60;56.00;;;;;;5012454;28;20091;-71
2023/05/15 12:00:05;;;;;;;7.55;3.75;;;23.70;56.10;;;;;;5029913;28;20048;-71
2023/05/15 12:02:30;;;;;;;;;;;23.90;56.10;;;;;;5013571;28;20025;-72
2023/05/15 12:04:56;;;;;;;9.27;4.10;;;24.10;56.20;;;;;;5030232;28;19913;-71
2023/05/15 12:07:22;;;;;;;7.35;3.88;;;24.20;56.20;;;;;;5012366;28;20034;-70
2023/05/15 12:09:54;;;;;;;7.82;4.28;;;24.30;56.40;;;;;;5029789;28;20351;-71
2023/05/15 12:12:19;;;;;;;10.57;4.18;;;24.10;56.10;;;;;;5029703;28;20108;-70
2023/05/15 12:14:45;;;;;;;9.02;4.47;;;24.00;55.90;;;;;;5029409;28;20212;-72
2023/05/15 12:17:11;;;;;;;10.07;4.60;;;23.90;56.50;;;;;;5030257;28;20026;-71
2023/05/15 12:19:37;;;;;;;9.07;4.38;;;23.90;56.50;;;;;;5012618;28;20505;-72
2023/05/15 12:22:05;;;;;;;8.13;4.22;;;24.10;56.20;;;;;;5030099;28;20037;-71
2023/05/15 12:24:31;;;;;;;7.15;4.13;;;23.80;55.70;;;;;;5029579;28;20370;-70
2023/05/15 12:26:57;;;;;;;8.68;4.28;;;23.70;56.10;;;;;;5012187;28;20026;-70
2023/05/15 12:29:23;;;;;;;6.78;3.90;;;23.70;56.60;;;;;;5030437;28;20033;-69
2023/05/15 12:31:52;;;;;;;8.02;4.22;;;23.50;56.00;;;;;;5012021;28;20053;-69
2023/05/15 12:34:18;;;;;;;6.38;3.67;;;23.50;56.10;;;;;;5029804;28;20480;-71
2023/05/15 12:36:44;;;;;;;6.53;4.50;;;23.70;56.30;;;;;;5032143;28;20040;-69
2023/05/15 12:39:10;;;;;;;11.15;4.88;;;23.70;56.60;;;;;;5033250;28;20097;-69
2023/05/15 12:41:37;;;;;;;6.80;4.22;;;23.70;57.00;;;;;;5033887;28;20028;-70
2023/05/15 12:44:04;;;;;;;13.68;4.90;;;23.80;56.80;;;;;;5033039;28;20521;-71
2023/05/15 12:46:31;;;;;;;11.05;4.88;;;23.60;56.30;;;;;;5033245;28;20113;-70